Murree Weather



Murree's Current Weather

Temprature 12.38o haze

haze

Rain: 0 %

Min Temprature11o
Max Temprature13.89o
Humidity62
Wind Speed2.1 m/h
Sun Rise07:07:00
Sun Set17:30:46
Current Time: 27-Jan-2020 18:23:21
Lat/Lon: 33.91, 73.39




Murree's Geo Location



Murree's Weather Forecast

Time Overall Temp Min Temp Max Temp Humidity Wind Speed Rain
27-Jan-2020 (Mon)
20:00:00 overcast clouds 9.270 5.970 9.270 62 0.83 m/h 0 %
23:00:00 overcast clouds 6.850 4.380 6.850 58 1.66 m/h 0 %
28-Jan-2020 (Tue)
02:00:00 overcast clouds 6.070 4.420 6.070 50 1.57 m/h 0 %
05:00:00 overcast clouds 4.290 3.470 4.290 53 1.51 m/h 0 %
08:00:00 overcast clouds 4.630 4.630 4.630 55 1.4 m/h 0 %
11:00:00 overcast clouds 6.550 6.550 6.550 51 1.74 m/h 0 %
14:00:00 light snow 4.380 4.380 4.380 79 2.41 m/h 0 %
17:00:00 light rain 3.260 3.260 3.260 90 1.91 m/h 188 %
20:00:00 snow 2.690 2.690 2.690 94 3.06 m/h 0 %
23:00:00 snow 2.020 2.020 2.020 96 2.97 m/h 0 %
29-Jan-2020 (Wed)
02:00:00 snow 2.310 2.310 2.310 95 2.52 m/h 0 %
05:00:00 light snow 1.910 1.910 1.910 95 2.65 m/h 0 %
08:00:00 light snow 1.970 1.970 1.970 96 2.6 m/h 0 %
11:00:00 light rain 3.610 3.610 3.610 93 1.4 m/h 206 %
14:00:00 moderate rain 3.250 3.250 3.250 97 2.28 m/h 363 %
17:00:00 light rain 3.670 3.670 3.670 93 1.64 m/h 225 %
20:00:00 overcast clouds 3.290 3.290 3.290 91 2.46 m/h 0 %
23:00:00 overcast clouds 2.860 2.860 2.860 86 2.06 m/h 0 %
30-Jan-2020 (Thu)
02:00:00 scattered clouds 1.730 1.730 1.730 82 2.18 m/h 0 %
05:00:00 few clouds 1.090 1.090 1.090 80 2.49 m/h 0 %
08:00:00 clear sky 1.970 1.970 1.970 76 2.54 m/h 0 %
11:00:00 clear sky 8.210 8.210 8.210 58 0.47 m/h 0 %
14:00:00 few clouds 9.810 9.810 9.810 51 1.52 m/h 0 %
17:00:00 broken clouds 7.240 7.240 7.240 72 2.11 m/h 0 %
20:00:00 broken clouds 3.630 3.630 3.630 85 0.31 m/h 0 %
23:00:00 broken clouds 2.920 2.920 2.920 81 1.6 m/h 0 %
31-Jan-2020 (Fri)
02:00:00 broken clouds 2.430 2.430 2.430 76 1.86 m/h 0 %
05:00:00 overcast clouds 2.050 2.050 2.050 69 2.06 m/h 0 %
08:00:00 overcast clouds 2.400 2.400 2.400 68 2.21 m/h 0 %
11:00:00 overcast clouds 7.810 7.810 7.810 50 0.95 m/h 0 %
14:00:00 light rain 9.010 9.010 9.010 50 2.3 m/h 63 %
17:00:00 light rain 6.590 6.590 6.590 73 1.51 m/h 113 %
20:00:00 light rain 4.380 4.380 4.380 75 0.37 m/h 25 %
23:00:00 overcast clouds 3.020 3.020 3.020 77 1.34 m/h 0 %
01-Feb-2020 (Sat)
02:00:00 clear sky 2.160 2.160 2.160 75 2.22 m/h 0 %
05:00:00 clear sky 1.290 1.290 1.290 68 2.42 m/h 0 %
08:00:00 clear sky 2.200 2.200 2.200 62 2.46 m/h 0 %
11:00:00 clear sky 8.830 8.830 8.830 43 1.09 m/h 0 %
14:00:00 clear sky 10.890 10.890 10.890 37 1.08 m/h 0 %
17:00:00 clear sky 8.410 8.410 8.410 56 1.42 m/h 0 %

Famous Cities (61)